createdAt,value
2023-03-06T00:00:00.859Z,100724.14
2023-03-06T00:02:13.990Z,100725.63
2023-03-06T00:04:27.248Z,100724.36
2023-03-06T00:06:40.396Z,100726.79
2023-03-06T00:08:53.582Z,100730.10
2023-03-06T00:11:06.536Z,100729.59
2023-03-06T00:13:21.128Z,100727.95
2023-03-06T00:15:35.513Z,100731.64
2023-03-06T00:17:48.311Z,100726.98
2023-03-06T00:20:02.248Z,100722.76
2023-03-06T00:22:19.098Z,100726.58
2023-03-06T00:24:32.143Z,100726.23
2023-03-06T00:26:48.960Z,100723.69
2023-03-06T00:29:02.040Z,100725.90
2023-03-06T00:31:15.001Z,100729.35
2023-03-06T00:33:27.829Z,100732.98
2023-03-06T00:35:41.558Z,100736.59
2023-03-06T00:37:54.753Z,100738.91
2023-03-06T00:40:13.389Z,100743.77
2023-03-06T00:42:26.391Z,100745.41
2023-03-06T00:44:39.309Z,100744.85
2023-03-06T00:46:52.433Z,100748.27
2023-03-06T00:49:05.750Z,100748.16
2023-03-06T00:51:21.006Z,100748.91
2023-03-06T00:53:34.219Z,100745.91
2023-03-06T00:55:49.898Z,100747.48
2023-03-06T00:58:03.056Z,100744.55
2023-03-06T01:00:18.882Z,100748.00
2023-03-06T01:02:32.077Z,100750.10
2023-03-06T01:04:46.108Z,100750.73
2023-03-06T01:06:59.254Z,100748.14
2023-03-06T01:09:12.959Z,100755.45
2023-03-06T01:11:26.374Z,100761.31
2023-03-06T01:13:40.613Z,100759.88
2023-03-06T01:15:53.813Z,100761.57
2023-03-06T01:18:07.783Z,100765.27
2023-03-06T01:20:24.010Z,100765.16
2023-03-06T01:22:37.917Z,100767.34
2023-03-06T01:24:52.292Z,100767.02
2023-03-06T01:27:07.436Z,100770.77
2023-03-06T01:29:20.808Z,100769.46
2023-03-06T01:31:34.058Z,100770.02
2023-03-06T01:33:46.854Z,100770.95
2023-03-06T01:35:59.841Z,100768.20
2023-03-06T01:38:13.060Z,100771.29
2023-03-06T01:40:27.118Z,100776.54
2023-03-06T01:42:40.225Z,100776.75
2023-03-06T01:45:31.776Z,100780.42
2023-03-06T01:47:46.045Z,100779.09
2023-03-06T01:50:00.420Z,100783.79
2023-03-06T01:52:18.867Z,100789.31
2023-03-06T01:54:36.478Z,100793.16
2023-03-06T01:56:52.407Z,100792.52
2023-03-06T01:59:06.188Z,100794.73
2023-03-06T02:01:21.269Z,100794.79
2023-03-06T02:03:35.583Z,100799.25
2023-03-06T02:05:52.141Z,100804.59
2023-03-06T02:08:06.169Z,100803.77
2023-03-06T02:10:20.348Z,100801.98
2023-03-06T02:12:33.579Z,100815.48
2023-03-06T02:14:47.552Z,100832.29
2023-03-06T02:17:00.648Z,100829.88
2023-03-06T02:19:23.289Z,100837.92
2023-03-06T02:21:39.611Z,100845.91
2023-03-06T02:24:05.168Z,100853.02
2023-03-06T02:26:18.970Z,100865.02
2023-03-06T02:28:31.930Z,100868.27
2023-03-06T02:30:46.648Z,100874.40
2023-03-06T02:33:00.855Z,100877.71
2023-03-06T02:35:26.444Z,100853.48
2023-03-06T02:37:39.821Z,100834.41
2023-03-06T02:39:56.631Z,100835.32
2023-03-06T02:42:09.756Z,100836.17
2023-03-06T02:44:22.754Z,100829.68
2023-03-06T02:46:36.546Z,100835.15
2023-03-06T02:48:49.779Z,100833.14
2023-03-06T02:51:03.007Z,100840.61
2023-03-06T02:53:17.891Z,100835.73
2023-03-06T02:55:31.008Z,100836.90
2023-03-06T02:57:43.865Z,100839.64
2023-03-06T02:59:56.834Z,100849.02
2023-03-06T03:02:10.714Z,100848.73
2023-03-06T03:04:23.617Z,100856.09
2023-03-06T03:06:37.137Z,100861.52
2023-03-06T03:08:50.373Z,100874.50
2023-03-06T03:11:04.154Z,100879.65
2023-03-06T03:13:23.984Z,100891.20
2023-03-06T03:15:37.379Z,100893.23
2023-03-06T03:17:50.577Z,100893.79
2023-03-06T03:20:04.335Z,100870.23
2023-03-06T03:22:18.217Z,100863.27
2023-03-06T03:24:31.045Z,100868.79
2023-03-06T03:26:44.598Z,100876.72
2023-03-06T03:29:05.863Z,100873.29
2023-03-06T03:31:19.221Z,100879.27
2023-03-06T03:33:32.642Z,100881.16
2023-03-06T03:35:46.054Z,100879.66
2023-03-06T03:37:58.988Z,100878.27
2023-03-06T03:40:14.477Z,100878.11
2023-03-06T03:42:27.829Z,100884.60
2023-03-06T03:44:40.916Z,100880.16
2023-03-06T03:46:55.146Z,100873.70
2023-03-06T03:49:09.631Z,100885.05
2023-03-06T03:51:23.412Z,100886.77
2023-03-06T03:53:39.022Z,100889.98
2023-03-06T03:55:52.141Z,100883.70
2023-03-06T03:58:05.832Z,100883.79
2023-03-06T04:00:21.447Z,100889.85
2023-03-06T04:02:54.636Z,100890.68
2023-03-06T04:05:18.826Z,100894.16
2023-03-06T04:07:32.826Z,100895.98
2023-03-06T04:09:46.304Z,100895.80
2023-03-06T04:11:59.387Z,100895.48
2023-03-06T04:14:13.326Z,100898.55
2023-03-06T04:16:26.687Z,100897.08
2023-03-06T04:18:39.864Z,100893.91
2023-03-06T04:20:54.113Z,100889.41
2023-03-06T04:23:07.811Z,100885.43
2023-03-06T04:25:24.934Z,100891.69
2023-03-06T04:27:37.818Z,100888.46
2023-03-06T04:29:51.266Z,100892.95
2023-03-06T04:32:04.388Z,100896.88
2023-03-06T04:34:17.579Z,100894.35
2023-03-06T04:36:36.102Z,100898.62
2023-03-06T04:38:55.000Z,100896.79
2023-03-06T04:41:08.971Z,100899.46
2023-03-06T04:43:23.289Z,100896.83
2023-03-06T04:45:38.142Z,100895.64
2023-03-06T04:47:51.020Z,100894.98
2023-03-06T04:50:04.070Z,100893.39
2023-03-06T04:52:17.465Z,100892.90
2023-03-06T04:54:30.269Z,100893.14
2023-03-06T04:56:43.247Z,100892.73
2023-03-06T04:58:56.533Z,100893.27
2023-03-06T05:01:09.807Z,100892.73
2023-03-06T05:03:23.338Z,100897.27
2023-03-06T05:05:36.247Z,100897.94
2023-03-06T05:07:49.890Z,100891.97
2023-03-06T05:10:03.514Z,100893.30
2023-03-06T05:12:16.792Z,100893.75
2023-03-06T05:14:32.251Z,100894.35
2023-03-06T05:16:45.648Z,100900.73
2023-03-06T05:18:58.970Z,100908.04
2023-03-06T05:21:12.657Z,100905.33
2023-03-06T05:23:26.143Z,100909.63
2023-03-06T05:25:38.813Z,100908.69
2023-03-06T05:27:51.782Z,100910.25
2023-03-06T05:30:05.110Z,100908.67
2023-03-06T05:32:21.580Z,100901.67
2023-03-06T05:34:35.173Z,100908.48
2023-03-06T05:36:48.785Z,100899.21
2023-03-06T05:39:02.180Z,100908.80
2023-03-06T05:41:17.610Z,100910.45
2023-03-06T05:43:30.584Z,100910.92
2023-03-06T05:45:44.036Z,100910.19
2023-03-06T05:47:57.259Z,100914.86
2023-03-06T05:50:11.638Z,100916.73
2023-03-06T05:52:24.530Z,100914.24
2023-03-06T05:54:38.686Z,100914.52
2023-03-06T05:56:52.259Z,100913.40
2023-03-06T05:59:05.257Z,100920.70
2023-03-06T06:01:19.702Z,100922.40
2023-03-06T06:03:32.729Z,100925.88
2023-03-06T06:05:47.281Z,100925.01
2023-03-06T06:08:00.006Z,100929.79
2023-03-06T06:10:15.483Z,100929.11
2023-03-06T06:12:28.554Z,100924.36
2023-03-06T06:14:41.603Z,100928.24
2023-03-06T06:16:55.295Z,100936.52
2023-03-06T06:19:08.563Z,100935.13
2023-03-06T06:21:21.742Z,100941.41
2023-03-06T06:23:34.617Z,100947.34
2023-03-06T06:25:47.845Z,100951.98
2023-03-06T06:28:02.595Z,100953.23
2023-03-06T06:30:17.397Z,100946.37
2023-03-06T06:32:30.586Z,100954.29
2023-03-06T06:34:43.476Z,100956.55
2023-03-06T06:36:57.505Z,100961.41
2023-03-06T06:39:11.185Z,100958.84
2023-03-06T06:41:42.610Z,100959.43
2023-03-06T06:43:59.137Z,100962.91
2023-03-06T06:46:47.142Z,100965.67
2023-03-06T06:48:42.765Z,100967.58
2023-03-06T06:51:01.118Z,100968.95
2023-03-06T06:53:14.587Z,100970.30
2023-03-06T06:55:28.454Z,100965.49
2023-03-06T06:57:41.608Z,100961.94
2023-03-06T06:59:54.713Z,100958.73
2023-03-06T07:02:07.545Z,100961.48
2023-03-06T07:04:20.734Z,100960.91
2023-03-06T07:06:34.396Z,100960.20
2023-03-06T07:08:47.325Z,100958.13
2023-03-06T07:11:03.536Z,100961.65
2023-03-06T07:13:16.506Z,100964.50
2023-03-06T07:15:31.890Z,100961.14
2023-03-06T07:17:44.791Z,100963.60
2023-03-06T07:19:57.816Z,100962.42
2023-03-06T07:22:10.885Z,100964.70
2023-03-06T07:24:23.876Z,100964.00
2023-03-06T07:26:36.843Z,100965.25
2023-03-06T07:28:54.040Z,100964.93
2023-03-06T07:31:10.932Z,100959.18
2023-03-06T07:33:24.541Z,100962.99
2023-03-06T07:35:37.512Z,100961.58
2023-03-06T07:37:50.578Z,100964.75
2023-03-06T07:40:03.657Z,100962.63
2023-03-06T07:42:17.549Z,100962.47
2023-03-06T07:44:39.257Z,100957.11
2023-03-06T07:46:52.040Z,100961.77
2023-03-06T07:49:05.102Z,100968.89
2023-03-06T07:51:22.729Z,100969.67
2023-03-06T07:53:36.890Z,100967.98
2023-03-06T07:55:50.732Z,100968.98
2023-03-06T07:58:04.023Z,100963.05
2023-03-06T08:00:19.500Z,100966.23
2023-03-06T08:02:32.605Z,100964.54
2023-03-06T08:04:45.707Z,100968.92
2023-03-06T08:07:00.702Z,100973.23
2023-03-06T08:09:14.164Z,100972.45
2023-03-06T08:11:28.893Z,100973.44
2023-03-06T08:13:43.421Z,100969.89
2023-03-06T08:15:57.852Z,100975.59
2023-03-06T08:18:11.008Z,100973.83
2023-03-06T08:20:25.773Z,100982.27
2023-03-06T08:22:40.260Z,100984.92
2023-03-06T08:24:57.550Z,100988.77
2023-03-06T08:27:11.216Z,100992.94
2023-03-06T08:29:24.458Z,100992.30
2023-03-06T08:31:38.428Z,100992.21
2023-03-06T08:33:51.634Z,100998.04
2023-03-06T08:36:04.523Z,100998.70
2023-03-06T08:38:17.490Z,100997.90
2023-03-06T08:40:31.666Z,100999.05
2023-03-06T08:42:45.287Z,100999.23
2023-03-06T08:44:58.112Z,101005.85
2023-03-06T08:47:11.555Z,101006.38
2023-03-06T08:49:25.516Z,101012.23
2023-03-06T08:51:39.256Z,101007.55
2023-03-06T08:53:52.153Z,101010.83
2023-03-06T08:56:05.465Z,101015.20
2023-03-06T08:58:18.475Z,101017.48
2023-03-06T09:00:31.615Z,101018.84
2023-03-06T09:02:45.225Z,101021.55
2023-03-06T09:04:58.514Z,101023.27
2023-03-06T09:07:11.554Z,101025.70
2023-03-06T09:09:24.284Z,101031.19
2023-03-06T09:11:40.860Z,101031.94
2023-03-06T09:13:54.714Z,101035.58
2023-03-06T09:16:07.690Z,101035.80
2023-03-06T09:18:20.808Z,101035.97
2023-03-06T09:20:34.025Z,101043.89
2023-03-06T09:22:46.918Z,101040.20
2023-03-06T09:25:00.377Z,101043.77
2023-03-06T09:27:13.432Z,101046.29
2023-03-06T09:29:26.768Z,101051.63
2023-03-06T09:31:39.855Z,101044.02
2023-03-06T09:33:53.444Z,101046.79
2023-03-06T09:36:09.540Z,101048.35
2023-03-06T09:38:22.662Z,101053.23
2023-03-06T09:40:49.640Z,101054.39
2023-03-06T09:43:02.649Z,101055.86
2023-03-06T09:45:17.348Z,101054.54
2023-03-06T09:47:52.818Z,101059.89
2023-03-06T09:50:15.296Z,101060.10
2023-03-06T09:52:34.278Z,101066.71
2023-03-06T09:54:49.666Z,101069.48
2023-03-06T09:57:02.606Z,101066.58
2023-03-06T09:59:21.265Z,101064.90
2023-03-06T10:01:38.001Z,101065.13
2023-03-06T10:03:56.210Z,101064.28
2023-03-06T10:06:16.363Z,101065.41
2023-03-06T10:08:33.546Z,101066.91
2023-03-06T10:10:52.534Z,101068.09
2023-03-06T10:13:17.560Z,101068.80
2023-03-06T10:15:34.289Z,101064.83
2023-03-06T10:17:49.245Z,101069.30
2023-03-06T10:20:02.472Z,101065.48
2023-03-06T10:22:26.747Z,101072.05
2023-03-06T10:24:57.868Z,101066.00
2023-03-06T10:27:24.814Z,101071.68
2023-03-06T10:30:02.667Z,101067.46
2023-03-06T10:32:34.247Z,101061.83
2023-03-06T10:34:53.448Z,101065.71
2023-03-06T10:37:17.374Z,101069.95
2023-03-06T10:39:30.311Z,101063.25
2023-03-06T10:41:44.671Z,101065.05
2023-03-06T10:44:24.869Z,101068.92
2023-03-06T10:46:39.404Z,101067.37
2023-03-06T10:49:04.553Z,101074.61
2023-03-06T10:51:22.815Z,101073.53
2023-03-06T10:53:36.299Z,101086.30
2023-03-06T10:55:57.938Z,101080.94
2023-03-06T10:58:26.408Z,101080.61
2023-03-06T11:00:40.545Z,101080.21
2023-03-06T11:03:07.350Z,101082.83
2023-03-06T11:05:26.632Z,101087.59
2023-03-06T11:07:40.248Z,101086.20
2023-03-06T11:10:08.822Z,101092.01
2023-03-06T11:12:33.209Z,101085.26
2023-03-06T11:14:46.422Z,101085.17
2023-03-06T11:16:59.464Z,101078.92
2023-03-06T11:19:27.508Z,101086.85
2023-03-06T11:21:42.338Z,101084.04
2023-03-06T11:23:57.560Z,101086.90
2023-03-06T11:26:24.596Z,101078.70
2023-03-06T11:28:41.977Z,101078.44
2023-03-06T11:30:59.582Z,101082.90
2023-03-06T11:33:22.456Z,101078.04
2023-03-06T11:35:42.634Z,101073.98
2023-03-06T11:38:00.314Z,101075.73
2023-03-06T11:40:24.074Z,101077.13
2023-03-06T11:42:41.277Z,101073.02
2023-03-06T11:45:11.362Z,101072.45
2023-03-06T11:47:27.055Z,101072.73
2023-03-06T11:49:47.403Z,101074.91
2023-03-06T11:52:06.022Z,101068.99
2023-03-06T11:54:19.162Z,101064.25
2023-03-06T11:56:44.370Z,101060.75
2023-03-06T11:59:37.066Z,101064.29
2023-03-06T12:01:58.713Z,101068.54
2023-03-06T12:04:34.353Z,101061.97
2023-03-06T12:06:55.612Z,101063.85
2023-03-06T12:09:27.768Z,101067.90
2023-03-06T12:11:49.446Z,101063.87
2023-03-06T12:14:15.337Z,101062.70
2023-03-06T12:16:48.333Z,101057.63
2023-03-06T12:19:16.177Z,101063.43
2023-03-06T12:21:40.564Z,101069.19
2023-03-06T12:24:05.298Z,101065.79
2023-03-06T12:26:42.726Z,101069.91
2023-03-06T12:29:10.186Z,101078.29
2023-03-06T12:31:49.791Z,101077.73
2023-03-06T12:34:16.656Z,101073.80
2023-03-06T12:36:40.539Z,101073.70
2023-03-06T12:39:21.276Z,101071.91
2023-03-06T12:41:57.008Z,101077.11
2023-03-06T12:44:34.860Z,101087.27
2023-03-06T12:46:51.053Z,101081.88
2023-03-06T12:49:15.688Z,101081.07
2023-03-06T12:51:35.338Z,101082.39
2023-03-06T12:53:50.498Z,101086.20
2023-03-06T12:56:05.111Z,101086.06
2023-03-06T12:58:50.190Z,101088.13
2023-03-06T13:01:13.226Z,101086.17
2023-03-06T13:03:31.506Z,101093.35
2023-03-06T13:06:18.330Z,101095.38
2023-03-06T13:08:56.642Z,101100.42
2023-03-06T13:11:31.863Z,101089.64
2023-03-06T13:13:51.552Z,101095.09
2023-03-06T13:16:25.115Z,101097.77
2023-03-06T13:19:04.662Z,101101.30
2023-03-06T13:22:01.612Z,101096.22
2023-03-06T13:24:27.704Z,101094.65
2023-03-06T13:27:07.191Z,101101.54
2023-03-06T13:30:03.498Z,101107.45
2023-03-06T13:32:33.344Z,101112.61
2023-03-06T13:34:48.189Z,101110.70
2023-03-06T13:37:37.309Z,101117.10
2023-03-06T13:40:19.678Z,101117.70
2023-03-06T13:42:36.254Z,101120.17
2023-03-06T13:44:53.777Z,101122.48
2023-03-06T13:47:09.606Z,101129.23
2023-03-06T13:49:28.112Z,101132.13
2023-03-06T13:51:43.733Z,101125.42
2023-03-06T13:54:22.098Z,101122.25
2023-03-06T13:57:11.940Z,101127.35
2023-03-06T14:00:06.957Z,101125.56
2023-03-06T14:02:43.298Z,101122.20
2023-03-06T14:05:02.513Z,101126.91
2023-03-06T14:07:27.074Z,101129.62
2023-03-06T14:09:45.235Z,101132.17
2023-03-06T14:12:01.573Z,101126.27
2023-03-06T14:14:17.224Z,101124.46
2023-03-06T14:16:40.602Z,101125.77
2023-03-06T14:19:02.298Z,101122.14
2023-03-06T14:21:18.339Z,101122.83
2023-03-06T14:23:39.432Z,101124.89
2023-03-06T14:25:57.782Z,101124.36
2023-03-06T14:28:28.622Z,101128.92
2023-03-06T14:30:51.702Z,101126.07
2023-03-06T14:33:13.815Z,101126.56
2023-03-06T14:35:32.742Z,101137.31
2023-03-06T14:37:46.259Z,101142.61
2023-03-06T14:39:59.880Z,101147.69
2023-03-06T14:42:20.315Z,101150.88
2023-03-06T14:44:33.083Z,101156.49
2023-03-06T14:46:46.026Z,101163.81
2023-03-06T14:49:02.199Z,101162.70
2023-03-06T14:51:21.005Z,101167.16
2023-03-06T14:53:37.431Z,101168.88
2023-03-06T14:55:54.950Z,101162.81
2023-03-06T14:58:14.438Z,101165.42
2023-03-06T15:00:31.722Z,101167.71
2023-03-06T15:02:44.796Z,101170.95
2023-03-06T15:05:01.841Z,101175.25
2023-03-06T15:07:18.211Z,101177.66
2023-03-06T15:09:33.652Z,101184.35
2023-03-06T15:12:01.067Z,101184.59
2023-03-06T15:14:24.426Z,101185.55
2023-03-06T15:16:38.040Z,101188.21
2023-03-06T15:19:02.244Z,101183.27
2023-03-06T15:21:22.545Z,101186.23
2023-03-06T15:23:44.955Z,101196.67
2023-03-06T15:26:03.238Z,101200.76
2023-03-06T15:28:40.835Z,101199.23
2023-03-06T15:31:08.647Z,101197.31
2023-03-06T15:33:29.518Z,101207.73
2023-03-06T15:35:43.472Z,101205.45
2023-03-06T15:37:56.876Z,101213.60
2023-03-06T15:40:21.126Z,101217.54
2023-03-06T15:42:37.597Z,101221.17
2023-03-06T15:44:54.265Z,101224.27
2023-03-06T15:47:09.159Z,101222.80
2023-03-06T15:49:24.156Z,101223.98
2023-03-06T15:51:38.088Z,101227.80
2023-03-06T15:53:53.019Z,101227.56
2023-03-06T15:56:07.928Z,101231.89
2023-03-06T15:58:24.996Z,101235.84
2023-03-06T16:00:40.995Z,101238.05
2023-03-06T16:02:54.168Z,101238.70
2023-03-06T16:05:13.962Z,101237.25
2023-03-06T16:07:28.318Z,101244.05
2023-03-06T16:09:41.751Z,101250.17
2023-03-06T16:11:55.102Z,101248.27
2023-03-06T16:14:08.196Z,101247.60
2023-03-06T16:16:28.081Z,101252.02
2023-03-06T16:18:40.973Z,101258.02
2023-03-06T16:20:54.179Z,101259.21
2023-03-06T16:23:11.660Z,101259.56
2023-03-06T16:25:26.436Z,101259.45
2023-03-06T16:27:39.564Z,101267.79
2023-03-06T16:29:52.372Z,101280.11
2023-03-06T16:32:05.701Z,101282.95
2023-03-06T16:34:20.733Z,101282.03
2023-03-06T16:36:33.753Z,101275.12
2023-03-06T16:38:46.562Z,101278.83
2023-03-06T16:40:59.923Z,101271.09
2023-03-06T16:43:14.582Z,101268.19
2023-03-06T16:45:28.408Z,101267.29
2023-03-06T16:47:41.631Z,101268.19
2023-03-06T16:49:59.081Z,101272.25
2023-03-06T16:52:13.281Z,101270.37
2023-03-06T16:54:27.320Z,101273.59
2023-03-06T16:56:40.331Z,101281.98
2023-03-06T16:58:54.147Z,101291.79
2023-03-06T17:01:07.212Z,101287.63
2023-03-06T17:03:20.793Z,101295.95
2023-03-06T17:05:35.560Z,101297.98
2023-03-06T17:07:48.727Z,101296.47
2023-03-06T17:10:03.879Z,101301.29
2023-03-06T17:12:18.295Z,101301.55
2023-03-06T17:14:31.716Z,101307.49
2023-03-06T17:16:46.779Z,101308.38
2023-03-06T17:19:03.296Z,101313.88
2023-03-06T17:21:18.574Z,101315.63
2023-03-06T17:23:32.588Z,101319.57
2023-03-06T17:25:45.815Z,101321.04
2023-03-06T17:27:58.845Z,101330.21
2023-03-06T17:30:15.143Z,101335.35
2023-03-06T17:32:28.602Z,101330.80
2023-03-06T17:34:41.591Z,101331.27
2023-03-06T17:36:54.497Z,101336.33
2023-03-06T17:39:08.437Z,101331.11
2023-03-06T17:41:25.543Z,101334.05
2023-03-06T17:43:38.769Z,101341.95
2023-03-06T17:45:52.054Z,101346.56
2023-03-06T17:48:05.955Z,101354.10
2023-03-06T17:50:19.460Z,101356.75
2023-03-06T17:52:33.288Z,101363.02
2023-03-06T17:54:47.472Z,101366.88
2023-03-06T17:57:03.404Z,101366.92
2023-03-06T17:59:17.363Z,101372.06
2023-03-06T18:01:31.576Z,101370.93
2023-03-06T18:03:46.716Z,101378.42
2023-03-06T18:06:10.584Z,101382.33
2023-03-06T18:08:23.753Z,101379.42
2023-03-06T18:10:37.649Z,101380.60
2023-03-06T18:12:51.434Z,101383.04
2023-03-06T18:15:05.023Z,101384.54
2023-03-06T18:17:18.623Z,101378.83
2023-03-06T18:19:34.515Z,101379.58
2023-03-06T18:21:49.102Z,101382.96
2023-03-06T18:24:03.263Z,101384.30
2023-03-06T18:26:18.221Z,101386.25
2023-03-06T18:28:31.903Z,101386.95
2023-03-06T18:30:45.833Z,101384.95
2023-03-06T18:32:58.913Z,101384.51
2023-03-06T18:35:12.871Z,101382.53
2023-03-06T18:37:26.133Z,101388.85
2023-03-06T18:39:38.996Z,101394.60
2023-03-06T18:41:52.824Z,101388.46
2023-03-06T18:44:06.948Z,101389.14
2023-03-06T18:46:19.866Z,101390.45
2023-03-06T18:48:32.566Z,101400.61
2023-03-06T18:50:45.595Z,101399.52
2023-03-06T18:52:58.400Z,101392.56
2023-03-06T18:55:12.806Z,101391.64
2023-03-06T18:57:25.855Z,101399.56
2023-03-06T18:59:38.977Z,101397.55
2023-03-06T19:01:58.605Z,101394.45
2023-03-06T19:04:12.197Z,101397.33
2023-03-06T19:06:27.585Z,101395.92
2023-03-06T19:08:41.929Z,101402.27
2023-03-06T19:10:54.718Z,101400.94
2023-03-06T19:13:07.806Z,101404.36
2023-03-06T19:15:21.052Z,101408.05
2023-03-06T19:17:34.530Z,101418.30
2023-03-06T19:19:47.632Z,101421.70
2023-03-06T19:22:03.567Z,101425.45
2023-03-06T19:24:16.572Z,101423.86
2023-03-06T19:26:29.960Z,101427.17
2023-03-06T19:28:44.282Z,101434.64
2023-03-06T19:30:58.140Z,101438.80
2023-03-06T19:33:11.600Z,101440.73
2023-03-06T19:35:25.346Z,101438.67
2023-03-06T19:37:38.612Z,101443.58
2023-03-06T19:39:51.466Z,101440.65
2023-03-06T19:42:05.765Z,101449.09
2023-03-06T19:44:19.288Z,101449.04
2023-03-06T19:46:33.072Z,101446.27
2023-03-06T19:48:46.104Z,101450.30
2023-03-06T19:50:59.056Z,101452.92
2023-03-06T19:53:12.245Z,101450.08
2023-03-06T19:55:29.661Z,101442.84
2023-03-06T19:57:42.780Z,101432.66
2023-03-06T19:59:58.639Z,101432.95
2023-03-06T20:02:13.191Z,101430.08
2023-03-06T20:04:26.504Z,101428.96
2023-03-06T20:06:40.584Z,101426.60
2023-03-06T20:08:54.278Z,101423.59
2023-03-06T20:11:08.289Z,101421.13
2023-03-06T20:13:21.342Z,101418.28
2023-03-06T20:15:36.311Z,101422.58
2023-03-06T20:17:49.218Z,101427.61
2023-03-06T20:20:02.227Z,101427.41
2023-03-06T20:22:14.970Z,101430.06
2023-03-06T20:24:28.170Z,101436.17
2023-03-06T20:26:41.008Z,101441.21
2023-03-06T20:28:53.994Z,101445.87
2023-03-06T20:31:12.295Z,101450.05
2023-03-06T20:33:27.614Z,101453.21
2023-03-06T20:35:43.031Z,101454.27
2023-03-06T20:37:56.293Z,101455.48
2023-03-06T20:40:11.228Z,101453.94
2023-03-06T20:42:24.373Z,101454.39
2023-03-06T20:44:37.637Z,101458.45
2023-03-06T20:46:50.494Z,101455.08
2023-03-06T20:49:04.438Z,101456.98
2023-03-06T20:51:21.917Z,101456.20
2023-03-06T20:53:35.725Z,101451.93
2023-03-06T20:55:50.001Z,101449.57
2023-03-06T20:58:03.856Z,101441.88
2023-03-06T21:00:19.002Z,101446.95
2023-03-06T21:02:33.437Z,101435.80
2023-03-06T21:04:46.814Z,101436.48
2023-03-06T21:07:00.486Z,101434.27
2023-03-06T21:09:13.876Z,101433.50
2023-03-06T21:11:26.954Z,101433.73
2023-03-06T21:13:40.265Z,101434.81
2023-03-06T21:15:53.756Z,101431.35
2023-03-06T21:18:07.178Z,101428.91
2023-03-06T21:20:20.786Z,101424.52
2023-03-06T21:22:34.841Z,101425.58
2023-03-06T21:24:47.878Z,101419.45
2023-03-06T21:27:00.661Z,101424.21
2023-03-06T21:29:13.409Z,101426.10
2023-03-06T21:31:28.322Z,101415.85
2023-03-06T21:33:41.720Z,101413.36
2023-03-06T21:35:54.938Z,101417.95
2023-03-06T21:38:08.083Z,101421.48
2023-03-06T21:40:25.488Z,101418.44
2023-03-06T21:42:39.679Z,101418.76
2023-03-06T21:44:52.954Z,101422.31
2023-03-06T21:47:05.854Z,101426.71
2023-03-06T21:49:19.607Z,101425.40
2023-03-06T21:51:33.023Z,101429.80
2023-03-06T21:53:47.544Z,101431.30
2023-03-06T21:56:02.144Z,101426.98
2023-03-06T21:58:14.942Z,101431.91
2023-03-06T22:00:28.480Z,101431.31
2023-03-06T22:02:41.081Z,101421.16
2023-03-06T22:04:57.859Z,101421.98
2023-03-06T22:07:11.089Z,101424.84
2023-03-06T22:09:23.910Z,101428.11
2023-03-06T22:11:38.267Z,101430.50
2023-03-06T22:13:52.509Z,101431.61
2023-03-06T22:16:05.578Z,101435.20
2023-03-06T22:18:18.712Z,101436.09
2023-03-06T22:20:32.029Z,101439.95
2023-03-06T22:22:45.519Z,101443.02
2023-03-06T22:24:58.723Z,101445.95
2023-03-06T22:27:11.779Z,101445.26
2023-03-06T22:29:25.188Z,101447.47
2023-03-06T22:31:40.223Z,101450.10
2023-03-06T22:33:56.418Z,101456.55
2023-03-06T22:36:11.602Z,101456.48
2023-03-06T22:38:24.822Z,101458.52
2023-03-06T22:40:38.960Z,101455.48
2023-03-06T22:42:52.135Z,101452.60
2023-03-06T22:45:04.992Z,101454.95
2023-03-06T22:47:17.889Z,101453.54
2023-03-06T22:49:31.309Z,101453.27
2023-03-06T22:51:45.852Z,101459.69
2023-03-06T22:53:59.363Z,101456.85
2023-03-06T22:56:14.771Z,101457.22
2023-03-06T22:58:28.591Z,101456.41
2023-03-06T23:00:42.254Z,101459.96
2023-03-06T23:02:55.588Z,101456.55
2023-03-06T23:05:09.374Z,101463.83
2023-03-06T23:07:23.861Z,101462.09
2023-03-06T23:09:46.300Z,101465.73
2023-03-06T23:12:17.986Z,101463.61
2023-03-06T23:14:52.386Z,101468.60
2023-03-06T23:20:11.241Z,101461.56
2023-03-06T23:22:42.945Z,101461.92
2023-03-06T23:25:15.523Z,101457.09
2023-03-06T23:27:30.711Z,101455.55
2023-03-06T23:29:44.008Z,101452.50
2023-03-06T23:31:57.569Z,101458.27
2023-03-06T23:34:12.129Z,101455.07
2023-03-06T23:36:25.790Z,101454.02
2023-03-06T23:38:39.320Z,101448.80
2023-03-06T23:40:52.150Z,101451.02
2023-03-06T23:43:05.709Z,101450.58
2023-03-06T23:45:19.362Z,101448.16
2023-03-06T23:47:34.213Z,101444.58
2023-03-06T23:49:47.691Z,101445.70
2023-03-06T23:52:00.799Z,101445.71
2023-03-06T23:54:15.233Z,101455.77
2023-03-06T23:56:29.408Z,101458.79
2023-03-06T23:58:42.628Z,101465.88
